sensor_id;sensor_type;location;lat;lon;timestamp;temperature;humidity
70089;HTU21D;57460;47.134;19.888;2023-06-14T00:01:03;13.03;62.95
70089;HTU21D;57460;47.134;19.888;2023-06-14T00:03:31;12.92;62.73
70089;HTU21D;57460;47.134;19.888;2023-06-14T00:05:57;12.87;62.95
70089;HTU21D;57460;47.134;19.888;2023-06-14T00:08:23;12.85;65.40
70089;HTU21D;57460;47.134;19.888;2023-06-14T00:10:50;12.84;63.24
70089;HTU21D;57460;47.134;19.888;2023-06-14T00:13:16;12.86;63.04
70089;HTU21D;57460;47.134;19.888;2023-06-14T00:15:42;12.80;64.43
70089;HTU21D;57460;47.134;19.888;2023-06-14T00:18:08;12.74;63.99
70089;HTU21D;57460;47.134;19.888;2023-06-14T00:20:37;12.65;63.15
70089;HTU21D;57460;47.134;19.888;2023-06-14T00:23:02;12.63;63.64
70089;HTU21D;57460;47.134;19.888;2023-06-14T00:25:28;12.65;63.82
70089;HTU21D;57460;47.134;19.888;2023-06-14T00:27:55;12.65;64.85
70089;HTU21D;57460;47.134;19.888;2023-06-14T00:30:21;12.70;62.40
70089;HTU21D;57460;47.134;19.888;2023-06-14T00:32:48;12.73;63.79
70089;HTU21D;57460;47.134;19.888;2023-06-14T00:35:14;12.74;64.14
70089;HTU21D;57460;47.134;19.888;2023-06-14T00:37:40;12.78;62.98
70089;HTU21D;57460;47.134;19.888;2023-06-14T00:40:06;12.81;62.46
70089;HTU21D;57460;47.134;19.888;2023-06-14T00:42:33;12.74;68.36
70089;HTU21D;57460;47.134;19.888;2023-06-14T00:45:00;12.64;68.62
70089;HTU21D;57460;47.134;19.888;2023-06-14T00:47:26;12.59;68.04
70089;HTU21D;57460;47.134;19.888;2023-06-14T00:49:54;12.52;68.17
70089;HTU21D;57460;47.134;19.888;2023-06-14T00:52:22;12.48;65.97
70089;HTU21D;57460;47.134;19.888;2023-06-14T00:54:49;12.49;65.83
70089;HTU21D;57460;47.134;19.888;2023-06-14T00:57:15;12.55;63.90
70089;HTU21D;57460;47.134;19.888;2023-06-14T00:59:44;12.56;64.08
70089;HTU21D;57460;47.134;19.888;2023-06-14T01:02:11;12.52;64.98
70089;HTU21D;57460;47.134;19.888;2023-06-14T01:04:39;12.49;66.49
70089;HTU21D;57460;47.134;19.888;2023-06-14T01:07:25;12.50;65.19
70089;HTU21D;57460;47.134;19.888;2023-06-14T01:15:30;12.49;65.58
70089;HTU21D;57460;47.134;19.888;2023-06-14T01:17:57;12.50;66.68
70089;HTU21D;57460;47.134;19.888;2023-06-14T01:20:31;12.44;64.76
70089;HTU21D;57460;47.134;19.888;2023-06-14T01:22:58;12.31;67.59
70089;HTU21D;57460;47.134;19.888;2023-06-14T01:25:25;12.16;71.96
70089;HTU21D;57460;47.134;19.888;2023-06-14T01:30:24;12.07;66.78
70089;HTU21D;57460;47.134;19.888;2023-06-14T01:32:53;12.11;67.70
70089;HTU21D;57460;47.134;19.888;2023-06-14T01:35:21;12.12;66.38
70089;HTU21D;57460;47.134;19.888;2023-06-14T01:37:48;12.12;65.62
70089;HTU21D;57460;47.134;19.888;2023-06-14T01:40:15;12.13;67.72
70089;HTU21D;57460;47.134;19.888;2023-06-14T01:42:42;12.16;65.96
70089;HTU21D;57460;47.134;19.888;2023-06-14T01:45:10;12.16;65.36
70089;HTU21D;57460;47.134;19.888;2023-06-14T01:47:37;12.11;64.93
70089;HTU21D;57460;47.134;19.888;2023-06-14T01:50:03;12.11;65.20
70089;HTU21D;57460;47.134;19.888;2023-06-14T01:52:30;12.14;63.75
70089;HTU21D;57460;47.134;19.888;2023-06-14T01:54:56;12.08;67.24
70089;HTU21D;57460;47.134;19.888;2023-06-14T01:57:25;12.02;68.42
70089;HTU21D;57460;47.134;19.888;2023-06-14T01:59:54;11.96;67.62
70089;HTU21D;57460;47.134;19.888;2023-06-14T02:02:20;11.87;68.78
70089;HTU21D;57460;47.134;19.888;2023-06-14T02:04:46;11.86;66.69
70089;HTU21D;57460;47.134;19.888;2023-06-14T02:07:13;11.86;67.09
70089;HTU21D;57460;47.134;19.888;2023-06-14T02:09:40;11.77;66.15
70089;HTU21D;57460;47.134;19.888;2023-06-14T02:12:07;11.76;66.05
70089;HTU21D;57460;47.134;19.888;2023-06-14T02:14:32;11.78;66.29
70089;HTU21D;57460;47.134;19.888;2023-06-14T02:17:02;11.85;66.01
70089;HTU21D;57460;47.134;19.888;2023-06-14T02:19:27;11.89;65.77
70089;HTU21D;57460;47.134;19.888;2023-06-14T02:21:53;11.88;65.38
70089;HTU21D;57460;47.134;19.888;2023-06-14T02:24:19;11.88;66.00
70089;HTU21D;57460;47.134;19.888;2023-06-14T02:26:46;11.93;64.66
70089;HTU21D;57460;47.134;19.888;2023-06-14T02:29:11;11.89;69.77
70089;HTU21D;57460;47.134;19.888;2023-06-14T02:31:40;11.85;68.55
70089;HTU21D;57460;47.134;19.888;2023-06-14T02:34:06;11.82;71.15
70089;HTU21D;57460;47.134;19.888;2023-06-14T02:36:35;11.74;72.91
70089;HTU21D;57460;47.134;19.888;2023-06-14T02:39:00;11.74;69.82
70089;HTU21D;57460;47.134;19.888;2023-06-14T02:41:26;11.78;66.90
70089;HTU21D;57460;47.134;19.888;2023-06-14T02:43:53;11.85;65.55
70089;HTU21D;57460;47.134;19.888;2023-06-14T02:46:19;11.88;68.06
70089;HTU21D;57460;47.134;19.888;2023-06-14T02:48:45;11.90;67.42
70089;HTU21D;57460;47.134;19.888;2023-06-14T02:51:11;11.93;66.53
70089;HTU21D;57460;47.134;19.888;2023-06-14T02:53:38;11.94;66.91
70089;HTU21D;57460;47.134;19.888;2023-06-14T02:56:04;11.97;66.17
70089;HTU21D;57460;47.134;19.888;2023-06-14T02:58:30;11.99;65.27
70089;HTU21D;57460;47.134;19.888;2023-06-14T03:00:56;12.00;66.37
70089;HTU21D;57460;47.134;19.888;2023-06-14T03:03:22;11.94;65.62
70089;HTU21D;57460;47.134;19.888;2023-06-14T03:05:50;11.94;64.64
70089;HTU21D;57460;47.134;19.888;2023-06-14T03:08:17;11.93;66.61
70089;HTU21D;57460;47.134;19.888;2023-06-14T03:10:46;11.93;69.05
70089;HTU21D;57460;47.134;19.888;2023-06-14T03:13:13;11.91;69.55
70089;HTU21D;57460;47.134;19.888;2023-06-14T03:15:39;11.91;67.79
70089;HTU21D;57460;47.134;19.888;2023-06-14T03:18:08;11.93;64.66
70089;HTU21D;57460;47.134;19.888;2023-06-14T03:20:35;11.92;66.10
70089;HTU21D;57460;47.134;19.888;2023-06-14T03:23:02;11.96;66.50
70089;HTU21D;57460;47.134;19.888;2023-06-14T03:25:29;11.98;65.98
70089;HTU21D;57460;47.134;19.888;2023-06-14T03:27:55;11.98;65.74
70089;HTU21D;57460;47.134;19.888;2023-06-14T03:30:21;12.02;64.13
70089;HTU21D;57460;47.134;19.888;2023-06-14T03:32:47;11.99;67.60
70089;HTU21D;57460;47.134;19.888;2023-06-14T03:35:13;12.01;65.96
70089;HTU21D;57460;47.134;19.888;2023-06-14T03:37:44;12.04;66.59
70089;HTU21D;57460;47.134;19.888;2023-06-14T03:40:12;12.15;64.94
70089;HTU21D;57460;47.134;19.888;2023-06-14T03:42:39;12.16;68.18
70089;HTU21D;57460;47.134;19.888;2023-06-14T03:45:08;12.17;68.13
70089;HTU21D;57460;47.134;19.888;2023-06-14T03:47:35;12.12;71.23
70089;HTU21D;57460;47.134;19.888;2023-06-14T03:50:02;12.07;73.28
70089;HTU21D;57460;47.134;19.888;2023-06-14T03:52:29;12.07;72.91
70089;HTU21D;57460;47.134;19.888;2023-06-14T03:54:56;12.14;67.89
70089;HTU21D;57460;47.134;19.888;2023-06-14T03:57:23;12.25;68.14
70089;HTU21D;57460;47.134;19.888;2023-06-14T03:59:49;12.34;69.89
70089;HTU21D;57460;47.134;19.888;2023-06-14T04:02:15;12.42;69.81
70089;HTU21D;57460;47.134;19.888;2023-06-14T04:04:44;12.48;73.03
70089;HTU21D;57460;47.134;19.888;2023-06-14T04:07:14;12.48;73.96
70089;HTU21D;57460;47.134;19.888;2023-06-14T04:09:41;12.55;72.17
70089;HTU21D;57460;47.134;19.888;2023-06-14T04:12:28;12.61;73.03
70089;HTU21D;57460;47.134;19.888;2023-06-14T04:14:54;12.67;74.67
70089;HTU21D;57460;47.134;19.888;2023-06-14T04:17:20;12.72;72.68
70089;HTU21D;57460;47.134;19.888;2023-06-14T04:19:45;12.78;74.86
70089;HTU21D;57460;47.134;19.888;2023-06-14T04:22:13;12.88;71.71
70089;HTU21D;57460;47.134;19.888;2023-06-14T04:24:39;12.94;77.25
70089;HTU21D;57460;47.134;19.888;2023-06-14T04:27:04;13.03;77.29
70089;HTU21D;57460;47.134;19.888;2023-06-14T04:29:32;13.11;74.68
70089;HTU21D;57460;47.134;19.888;2023-06-14T04:31:58;13.23;76.60
70089;HTU21D;57460;47.134;19.888;2023-06-14T04:34:27;13.38;75.25
70089;HTU21D;57460;47.134;19.888;2023-06-14T04:36:59;13.55;78.22
70089;HTU21D;57460;47.134;19.888;2023-06-14T04:39:27;13.77;74.62
70089;HTU21D;57460;47.134;19.888;2023-06-14T04:41:53;13.97;77.79
70089;HTU21D;57460;47.134;19.888;2023-06-14T04:44:23;14.17;75.99
70089;HTU21D;57460;47.134;19.888;2023-06-14T04:46:58;14.38;75.04
70089;HTU21D;57460;47.134;19.888;2023-06-14T04:49:24;14.57;74.15
70089;HTU21D;57460;47.134;19.888;2023-06-14T04:51:53;14.73;74.64
70089;HTU21D;57460;47.134;19.888;2023-06-14T04:54:28;14.91;74.35
70089;HTU21D;57460;47.134;19.888;2023-06-14T04:56:57;15.09;75.90
70089;HTU21D;57460;47.134;19.888;2023-06-14T04:59:23;15.25;74.61
70089;HTU21D;57460;47.134;19.888;2023-06-14T05:01:49;15.34;76.10
70089;HTU21D;57460;47.134;19.888;2023-06-14T05:04:16;15.49;71.74
70089;HTU21D;57460;47.134;19.888;2023-06-14T05:06:43;15.67;71.32
70089;HTU21D;57460;47.134;19.888;2023-06-14T05:09:15;15.85;72.77
70089;HTU21D;57460;47.134;19.888;2023-06-14T05:11:44;16.02;70.29
70089;HTU21D;57460;47.134;19.888;2023-06-14T05:14:14;16.17;70.21
70089;HTU21D;57460;47.134;19.888;2023-06-14T05:16:40;16.31;70.98
70089;HTU21D;57460;47.134;19.888;2023-06-14T05:19:06;16.45;72.06
70089;HTU21D;57460;47.134;19.888;2023-06-14T05:21:32;16.61;71.02
70089;HTU21D;57460;47.134;19.888;2023-06-14T05:24:01;16.79;70.71
70089;HTU21D;57460;47.134;19.888;2023-06-14T05:26:27;16.96;70.71
70089;HTU21D;57460;47.134;19.888;2023-06-14T05:28:57;17.16;69.55
70089;HTU21D;57460;47.134;19.888;2023-06-14T05:31:24;17.37;68.46
70089;HTU21D;57460;47.134;19.888;2023-06-14T05:34:10;17.60;68.52
70089;HTU21D;57460;47.134;19.888;2023-06-14T05:36:36;17.82;65.53
70089;HTU21D;57460;47.134;19.888;2023-06-14T05:39:02;17.99;64.82
70089;HTU21D;57460;47.134;19.888;2023-06-14T05:41:29;18.11;64.94
70089;HTU21D;57460;47.134;19.888;2023-06-14T05:43:56;18.24;66.29
70089;HTU21D;57460;47.134;19.888;2023-06-14T05:46:23;18.38;63.98
70089;HTU21D;57460;47.134;19.888;2023-06-14T05:48:51;18.50;63.92
70089;HTU21D;57460;47.134;19.888;2023-06-14T05:51:17;18.67;64.22
70089;HTU21D;57460;47.134;19.888;2023-06-14T05:53:50;18.84;63.37
70089;HTU21D;57460;47.134;19.888;2023-06-14T05:56:17;19.05;63.28
70089;HTU21D;57460;47.134;19.888;2023-06-14T05:58:43;19.22;62.19
70089;HTU21D;57460;47.134;19.888;2023-06-14T06:01:09;19.38;61.99
70089;HTU21D;57460;47.134;19.888;2023-06-14T06:03:35;19.56;62.27
70089;HTU21D;57460;47.134;19.888;2023-06-14T06:06:01;19.73;60.06
70089;HTU21D;57460;47.134;19.888;2023-06-14T06:08:29;19.85;59.90
70089;HTU21D;57460;47.134;19.888;2023-06-14T06:10:56;20.00;60.61
70089;HTU21D;57460;47.134;19.888;2023-06-14T06:13:22;20.16;59.59
70089;HTU21D;57460;47.134;19.888;2023-06-14T06:15:48;20.27;59.81
70089;HTU21D;57460;47.134;19.888;2023-06-14T06:18:14;20.45;59.58
70089;HTU21D;57460;47.134;19.888;2023-06-14T06:20:40;20.72;58.03
70089;HTU21D;57460;47.134;19.888;2023-06-14T06:23:06;20.93;57.32
70089;HTU21D;57460;47.134;19.888;2023-06-14T06:25:33;21.06;57.45
70089;HTU21D;57460;47.134;19.888;2023-06-14T06:27:59;21.17;56.77
70089;HTU21D;57460;47.134;19.888;2023-06-14T06:30:25;21.18;56.20
70089;HTU21D;57460;47.134;19.888;2023-06-14T06:32:52;21.19;56.81
70089;HTU21D;57460;47.134;19.888;2023-06-14T06:35:18;21.33;56.70
70089;HTU21D;57460;47.134;19.888;2023-06-14T06:37:44;21.52;56.42
70089;HTU21D;57460;47.134;19.888;2023-06-14T06:40:10;21.69;54.23
70089;HTU21D;57460;47.134;19.888;2023-06-14T06:42:36;21.87;53.98
70089;HTU21D;57460;47.134;19.888;2023-06-14T06:45:02;21.93;53.80
70089;HTU21D;57460;47.134;19.888;2023-06-14T06:47:28;22.06;54.96
70089;HTU21D;57460;47.134;19.888;2023-06-14T06:49:54;22.11;53.14
70089;HTU21D;57460;47.134;19.888;2023-06-14T06:52:20;22.24;53.07
70089;HTU21D;57460;47.134;19.888;2023-06-14T06:54:46;22.36;54.26
70089;HTU21D;57460;47.134;19.888;2023-06-14T06:57:12;22.55;54.18
70089;HTU21D;57460;47.134;19.888;2023-06-14T06:59:38;22.78;50.28
70089;HTU21D;57460;47.134;19.888;2023-06-14T07:02:04;22.88;52.11
70089;HTU21D;57460;47.134;19.888;2023-06-14T07:04:30;22.94;52.73
70089;HTU21D;57460;47.134;19.888;2023-06-14T07:06:57;23.00;49.31
70089;HTU21D;57460;47.134;19.888;2023-06-14T07:09:25;23.11;52.53
70089;HTU21D;57460;47.134;19.888;2023-06-14T07:11:51;23.22;51.61
70089;HTU21D;57460;47.134;19.888;2023-06-14T07:14:17;23.29;48.44
70089;HTU21D;57460;47.134;19.888;2023-06-14T07:16:43;23.42;49.19
70089;HTU21D;57460;47.134;19.888;2023-06-14T07:19:10;23.50;48.86
70089;HTU21D;57460;47.134;19.888;2023-06-14T07:21:37;23.60;48.56
70089;HTU21D;57460;47.134;19.888;2023-06-14T07:24:05;23.73;49.73
70089;HTU21D;57460;47.134;19.888;2023-06-14T07:26:32;23.92;49.86
70089;HTU21D;57460;47.134;19.888;2023-06-14T07:28:57;24.13;48.47
70089;HTU21D;57460;47.134;19.888;2023-06-14T07:31:23;24.32;47.70
70089;HTU21D;57460;47.134;19.888;2023-06-14T07:33:49;24.43;49.12
70089;HTU21D;57460;47.134;19.888;2023-06-14T07:36:15;24.48;47.96
70089;HTU21D;57460;47.134;19.888;2023-06-14T07:38:41;24.66;48.66
70089;HTU21D;57460;47.134;19.888;2023-06-14T07:41:07;24.83;44.65
70089;HTU21D;57460;47.134;19.888;2023-06-14T07:43:33;24.80;46.28
70089;HTU21D;57460;47.134;19.888;2023-06-14T07:45:59;24.85;43.07
70089;HTU21D;57460;47.134;19.888;2023-06-14T07:48:25;24.74;44.90
70089;HTU21D;57460;47.134;19.888;2023-06-14T07:50:51;24.50;42.61
70089;HTU21D;57460;47.134;19.888;2023-06-14T07:53:17;24.58;46.97
70089;HTU21D;57460;47.134;19.888;2023-06-14T07:55:43;24.82;46.73
70089;HTU21D;57460;47.134;19.888;2023-06-14T07:58:09;25.03;46.17
70089;HTU21D;57460;47.134;19.888;2023-06-14T08:00:36;25.27;46.15
70089;HTU21D;57460;47.134;19.888;2023-06-14T08:03:02;25.62;45.33
70089;HTU21D;57460;47.134;19.888;2023-06-14T08:05:29;25.91;44.34
70089;HTU21D;57460;47.134;19.888;2023-06-14T08:07:55;26.18;42.09
70089;HTU21D;57460;47.134;19.888;2023-06-14T08:10:22;26.25;42.36
70089;HTU21D;57460;47.134;19.888;2023-06-14T08:12:48;26.26;42.98
70089;HTU21D;57460;47.134;19.888;2023-06-14T08:15:18;26.23;38.46
70089;HTU21D;57460;47.134;19.888;2023-06-14T08:17:46;26.24;40.49
70089;HTU21D;57460;47.134;19.888;2023-06-14T08:20:12;26.39;39.89
70089;HTU21D;57460;47.134;19.888;2023-06-14T08:22:39;26.57;41.48
70089;HTU21D;57460;47.134;19.888;2023-06-14T08:25:08;26.87;43.91
70089;HTU21D;57460;47.134;19.888;2023-06-14T08:27:34;26.95;34.77
70089;HTU21D;57460;47.134;19.888;2023-06-14T08:30:00;26.70;39.67
70089;HTU21D;57460;47.134;19.888;2023-06-14T08:32:26;26.69;38.48
70089;HTU21D;57460;47.134;19.888;2023-06-14T08:34:52;26.62;38.04
70089;HTU21D;57460;47.134;19.888;2023-06-14T08:37:18;26.77;39.01
70089;HTU21D;57460;47.134;19.888;2023-06-14T08:39:44;27.16;38.46
70089;HTU21D;57460;47.134;19.888;2023-06-14T08:42:12;27.36;39.09
70089;HTU21D;57460;47.134;19.888;2023-06-14T08:44:39;27.70;37.76
70089;HTU21D;57460;47.134;19.888;2023-06-14T08:47:07;27.55;33.65
70089;HTU21D;57460;47.134;19.888;2023-06-14T08:49:37;27.35;32.64
70089;HTU21D;57460;47.134;19.888;2023-06-14T08:52:05;26.95;37.53
70089;HTU21D;57460;47.134;19.888;2023-06-14T08:54:33;26.61;38.39
70089;HTU21D;57460;47.134;19.888;2023-06-14T08:57:04;26.36;38.04
70089;HTU21D;57460;47.134;19.888;2023-06-14T08:59:33;26.17;38.32
70089;HTU21D;57460;47.134;19.888;2023-06-14T09:02:05;25.93;39.07
70089;HTU21D;57460;47.134;19.888;2023-06-14T09:04:32;25.68;38.79
70089;HTU21D;57460;47.134;19.888;2023-06-14T09:06:59;25.56;39.85
70089;HTU21D;57460;47.134;19.888;2023-06-14T09:09:25;25.56;32.71
70089;HTU21D;57460;47.134;19.888;2023-06-14T09:11:51;25.77;35.42
70089;HTU21D;57460;47.134;19.888;2023-06-14T09:14:23;26.31;37.05
70089;HTU21D;57460;47.134;19.888;2023-06-14T09:16:52;26.95;33.73
70089;HTU21D;57460;47.134;19.888;2023-06-14T09:19:24;27.50;30.16
70089;HTU21D;57460;47.134;19.888;2023-06-14T09:21:50;27.76;34.57
70089;HTU21D;57460;47.134;19.888;2023-06-14T09:24:19;28.15;31.76
70089;HTU21D;57460;47.134;19.888;2023-06-14T09:26:47;28.43;32.00
70089;HTU21D;57460;47.134;19.888;2023-06-14T09:29:13;28.72;33.18
70089;HTU21D;57460;47.134;19.888;2023-06-14T09:31:39;28.97;33.83
70089;HTU21D;57460;47.134;19.888;2023-06-14T09:34:05;28.93;33.63
70089;HTU21D;57460;47.134;19.888;2023-06-14T09:36:32;29.29;31.07
70089;HTU21D;57460;47.134;19.888;2023-06-14T09:39:01;29.57;32.70
70089;HTU21D;57460;47.134;19.888;2023-06-14T09:41:39;29.67;30.42
70089;HTU21D;57460;47.134;19.888;2023-06-14T09:44:07;29.80;31.36
70089;HTU21D;57460;47.134;19.888;2023-06-14T09:46:35;29.76;29.64
70089;HTU21D;57460;47.134;19.888;2023-06-14T09:49:02;29.68;26.03
70089;HTU21D;57460;47.134;19.888;2023-06-14T09:51:29;29.57;28.52
70089;HTU21D;57460;47.134;19.888;2023-06-14T09:54:02;29.50;28.82
70089;HTU21D;57460;47.134;19.888;2023-06-14T09:56:44;29.49;30.10
70089;HTU21D;57460;47.134;19.888;2023-06-14T09:59:12;29.56;26.04
70089;HTU21D;57460;47.134;19.888;2023-06-14T10:01:43;29.66;30.01
70089;HTU21D;57460;47.134;19.888;2023-06-14T10:04:10;29.72;28.26
70089;HTU21D;57460;47.134;19.888;2023-06-14T10:06:37;29.92;29.71
70089;HTU21D;57460;47.134;19.888;2023-06-14T10:09:08;30.22;29.86
70089;HTU21D;57460;47.134;19.888;2023-06-14T10:11:35;30.46;30.42
70089;HTU21D;57460;47.134;19.888;2023-06-14T10:14:05;30.21;27.78
70089;HTU21D;57460;47.134;19.888;2023-06-14T10:16:36;29.71;28.66
70089;HTU21D;57460;47.134;19.888;2023-06-14T10:22:21;28.65;29.68
70089;HTU21D;57460;47.134;19.888;2023-06-14T10:24:50;28.67;31.42
70089;HTU21D;57460;47.134;19.888;2023-06-14T10:27:16;28.43;30.99
70089;HTU21D;57460;47.134;19.888;2023-06-14T10:32:18;28.12;28.62
70089;HTU21D;57460;47.134;19.888;2023-06-14T10:34:44;28.24;30.79
70089;HTU21D;57460;47.134;19.888;2023-06-14T10:37:13;28.33;29.04
70089;HTU21D;57460;47.134;19.888;2023-06-14T10:39:44;28.26;30.16
70089;HTU21D;57460;47.134;19.888;2023-06-14T10:42:14;28.35;27.42
70089;HTU21D;57460;47.134;19.888;2023-06-14T10:44:50;28.61;30.49
70089;HTU21D;57460;47.134;19.888;2023-06-14T10:47:28;28.72;27.32
70089;HTU21D;57460;47.134;19.888;2023-06-14T10:52:28;28.92;30.27
70089;HTU21D;57460;47.134;19.888;2023-06-14T10:55:19;29.45;30.08
70089;HTU21D;57460;47.134;19.888;2023-06-14T10:57:48;29.66;29.19
70089;HTU21D;57460;47.134;19.888;2023-06-14T11:00:19;30.03;27.93
70089;HTU21D;57460;47.134;19.888;2023-06-14T11:05:52;30.45;30.00
70089;HTU21D;57460;47.134;19.888;2023-06-14T11:10:44;30.66;25.30
70089;HTU21D;57460;47.134;19.888;2023-06-14T11:13:16;30.97;26.34
70089;HTU21D;57460;47.134;19.888;2023-06-14T11:15:47;31.04;26.98
70089;HTU21D;57460;47.134;19.888;2023-06-14T11:18:14;31.25;26.39
70089;HTU21D;57460;47.134;19.888;2023-06-14T11:20:42;31.53;26.26
70089;HTU21D;57460;47.134;19.888;2023-06-14T11:23:08;31.36;20.90
70089;HTU21D;57460;47.134;19.888;2023-06-14T11:25:34;31.20;21.70
70089;HTU21D;57460;47.134;19.888;2023-06-14T11:27:59;31.35;25.66
70089;HTU21D;57460;47.134;19.888;2023-06-14T11:30:25;30.80;20.74
70089;HTU21D;57460;47.134;19.888;2023-06-14T11:32:53;30.65;23.98
70089;HTU21D;57460;47.134;19.888;2023-06-14T11:35:21;30.78;25.81
70089;HTU21D;57460;47.134;19.888;2023-06-14T11:37:52;30.92;24.30
70089;HTU21D;57460;47.134;19.888;2023-06-14T11:40:19;31.00;21.69
70089;HTU21D;57460;47.134;19.888;2023-06-14T11:42:45;30.90;20.37
70089;HTU21D;57460;47.134;19.888;2023-06-14T11:45:12;30.93;24.61
70089;HTU21D;57460;47.134;19.888;2023-06-14T11:47:39;31.08;25.56
70089;HTU21D;57460;47.134;19.888;2023-06-14T11:50:07;31.16;23.42
70089;HTU21D;57460;47.134;19.888;2023-06-14T11:52:37;31.40;25.54
70089;HTU21D;57460;47.134;19.888;2023-06-14T11:55:03;31.64;25.43
70089;HTU21D;57460;47.134;19.888;2023-06-14T11:57:36;32.03;24.94
70089;HTU21D;57460;47.134;19.888;2023-06-14T12:00:06;31.92;20.96
70089;HTU21D;57460;47.134;19.888;2023-06-14T12:02:41;31.58;24.72
70089;HTU21D;57460;47.134;19.888;2023-06-14T12:05:08;30.98;23.46
70089;HTU21D;57460;47.134;19.888;2023-06-14T12:07:37;30.67;25.50
70089;HTU21D;57460;47.134;19.888;2023-06-14T12:10:09;30.48;25.65
70089;HTU21D;57460;47.134;19.888;2023-06-14T12:12:37;30.37;26.61
70089;HTU21D;57460;47.134;19.888;2023-06-14T12:15:07;30.55;26.58
70089;HTU21D;57460;47.134;19.888;2023-06-14T12:17:35;30.79;26.33
70089;HTU21D;57460;47.134;19.888;2023-06-14T12:20:12;31.20;26.46
70089;HTU21D;57460;47.134;19.888;2023-06-14T12:22:55;31.65;25.56
70089;HTU21D;57460;47.134;19.888;2023-06-14T12:25:32;31.66;24.65
70089;HTU21D;57460;47.134;19.888;2023-06-14T12:28:04;31.54;24.83
70089;HTU21D;57460;47.134;19.888;2023-06-14T12:30:31;31.49;24.66
70089;HTU21D;57460;47.134;19.888;2023-06-14T12:32:57;31.55;24.20
70089;HTU21D;57460;47.134;19.888;2023-06-14T12:35:23;31.57;24.95
70089;HTU21D;57460;47.134;19.888;2023-06-14T12:37:49;31.53;24.91
70089;HTU21D;57460;47.134;19.888;2023-06-14T12:40:15;31.20;25.52
70089;HTU21D;57460;47.134;19.888;2023-06-14T12:42:42;30.66;25.35
70089;HTU21D;57460;47.134;19.888;2023-06-14T12:45:08;30.31;25.49
70089;HTU21D;57460;47.134;19.888;2023-06-14T12:47:34;30.16;25.32
70089;HTU21D;57460;47.134;19.888;2023-06-14T12:50:27;30.06;26.49
70089;HTU21D;57460;47.134;19.888;2023-06-14T12:52:53;30.02;27.07
70089;HTU21D;57460;47.134;19.888;2023-06-14T12:55:19;29.93;27.20
70089;HTU21D;57460;47.134;19.888;2023-06-14T12:57:45;29.86;26.58
70089;HTU21D;57460;47.134;19.888;2023-06-14T13:00:11;29.65;25.57
70089;HTU21D;57460;47.134;19.888;2023-06-14T13:02:38;29.42;27.51
70089;HTU21D;57460;47.134;19.888;2023-06-14T13:05:04;29.47;28.25
70089;HTU21D;57460;47.134;19.888;2023-06-14T13:07:31;29.24;28.26
70089;HTU21D;57460;47.134;19.888;2023-06-14T13:09:57;29.23;28.29
70089;HTU21D;57460;47.134;19.888;2023-06-14T13:12:22;29.24;27.81
70089;HTU21D;57460;47.134;19.888;2023-06-14T13:14:48;29.31;28.28
70089;HTU21D;57460;47.134;19.888;2023-06-14T13:17:14;29.35;27.88
70089;HTU21D;57460;47.134;19.888;2023-06-14T13:19:40;29.36;28.33
70089;HTU21D;57460;47.134;19.888;2023-06-14T13:22:07;29.33;28.49
70089;HTU21D;57460;47.134;19.888;2023-06-14T13:24:34;29.32;28.40
70089;HTU21D;57460;47.134;19.888;2023-06-14T13:27:00;29.38;27.75
70089;HTU21D;57460;47.134;19.888;2023-06-14T13:29:26;29.33;27.94
70089;HTU21D;57460;47.134;19.888;2023-06-14T13:31:53;29.27;28.08
70089;HTU21D;57460;47.134;19.888;2023-06-14T13:34:19;29.28;28.19
70089;HTU21D;57460;47.134;19.888;2023-06-14T13:36:46;29.08;28.15
70089;HTU21D;57460;47.134;19.888;2023-06-14T13:39:13;28.86;26.94
70089;HTU21D;57460;47.134;19.888;2023-06-14T13:41:39;28.67;27.25
70089;HTU21D;57460;47.134;19.888;2023-06-14T13:44:05;28.62;29.22
70089;HTU21D;57460;47.134;19.888;2023-06-14T13:46:31;28.62;29.20
70089;HTU21D;57460;47.134;19.888;2023-06-14T13:48:57;28.58;29.55
70089;HTU21D;57460;47.134;19.888;2023-06-14T13:51:27;28.56;28.81
70089;HTU21D;57460;47.134;19.888;2023-06-14T13:53:53;28.58;28.92
70089;HTU21D;57460;47.134;19.888;2023-06-14T13:56:20;28.62;29.51
70089;HTU21D;57460;47.134;19.888;2023-06-14T13:58:48;28.62;28.28
70089;HTU21D;57460;47.134;19.888;2023-06-14T14:01:14;28.61;28.40
70089;HTU21D;57460;47.134;19.888;2023-06-14T14:03:40;28.69;29.37
70089;HTU21D;57460;47.134;19.888;2023-06-14T14:06:05;28.70;29.32
70089;HTU21D;57460;47.134;19.888;2023-06-14T14:08:32;28.60;28.54
70089;HTU21D;57460;47.134;19.888;2023-06-14T14:10:59;28.82;29.22
70089;HTU21D;57460;47.134;19.888;2023-06-14T14:13:25;28.98;28.31
70089;HTU21D;57460;47.134;19.888;2023-06-14T14:15:51;29.22;28.92
70089;HTU21D;57460;47.134;19.888;2023-06-14T14:18:18;29.53;24.82
70089;HTU21D;57460;47.134;19.888;2023-06-14T14:20:47;29.73;27.74
70089;HTU21D;57460;47.134;19.888;2023-06-14T14:23:12;29.77;25.98
70089;HTU21D;57460;47.134;19.888;2023-06-14T14:25:38;29.51;28.09
70089;HTU21D;57460;47.134;19.888;2023-06-14T14:28:04;29.43;28.59
70089;HTU21D;57460;47.134;19.888;2023-06-14T14:30:30;29.44;28.85
70089;HTU21D;57460;47.134;19.888;2023-06-14T14:32:56;29.41;29.05
70089;HTU21D;57460;47.134;19.888;2023-06-14T14:35:22;29.30;29.10
70089;HTU21D;57460;47.134;19.888;2023-06-14T14:37:50;29.14;28.74
70089;HTU21D;57460;47.134;19.888;2023-06-14T14:40:16;29.06;29.08
70089;HTU21D;57460;47.134;19.888;2023-06-14T14:42:41;28.85;28.58
70089;HTU21D;57460;47.134;19.888;2023-06-14T14:45:07;28.82;29.68
70089;HTU21D;57460;47.134;19.888;2023-06-14T14:47:33;28.79;29.42
70089;HTU21D;57460;47.134;19.888;2023-06-14T14:50:00;28.76;29.70
70089;HTU21D;57460;47.134;19.888;2023-06-14T14:52:25;28.68;30.07
70089;HTU21D;57460;47.134;19.888;2023-06-14T14:54:52;28.64;29.96
70089;HTU21D;57460;47.134;19.888;2023-06-14T14:57:19;28.63;30.30
70089;HTU21D;57460;47.134;19.888;2023-06-14T14:59:45;28.63;30.30
70089;HTU21D;57460;47.134;19.888;2023-06-14T15:02:11;28.68;28.41
70089;HTU21D;57460;47.134;19.888;2023-06-14T15:04:37;28.79;29.45
70089;HTU21D;57460;47.134;19.888;2023-06-14T15:07:03;28.98;28.23
70089;HTU21D;57460;47.134;19.888;2023-06-14T15:09:29;29.11;29.36
70089;HTU21D;57460;47.134;19.888;2023-06-14T15:11:55;29.16;28.26
70089;HTU21D;57460;47.134;19.888;2023-06-14T15:14:21;29.28;26.31
70089;HTU21D;57460;47.134;19.888;2023-06-14T15:16:47;29.45;28.57
70089;HTU21D;57460;47.134;19.888;2023-06-14T15:19:13;29.48;28.65
70089;HTU21D;57460;47.134;19.888;2023-06-14T15:21:38;29.50;26.90
70089;HTU21D;57460;47.134;19.888;2023-06-14T15:24:04;29.46;28.14
70089;HTU21D;57460;47.134;19.888;2023-06-14T15:26:30;29.57;28.16